Funkstown, Maryland
Current Conditions -  °F | °C
As of 11:53 PM on Tuesday 25 Nov 2014 (Local Time) from KHGR Reporting Station
Clear Clear  
Wind Chill: 39°   Ceiling: Unl
Heat Index: 42°   Visibility: 10mi
Dew Point: 30°   Wind: 5mph
Humidity: 62%   Direction: 60°ENE
Pressure: 30.14"   Gusts: NA
Location:  39.61°N, 77.7°W
Report Text: KHGR 260453Z AUTO 06004KT 10SM CLR 06/M01 A3014 RMK AO2 SLP218 T00561011 401670039 TSNO
Loading
Personal Weather Stations






























Interactive Weather Map New forecast layout! Learn more

10-Day Weather Forecast

Advertisements
Track Severe Weather on mobile